createdAt,value
2019-01-19T00:01:55.122Z,-0.40
2019-01-19T00:04:54.965Z,-0.50
2019-01-19T00:08:17.206Z,-0.50
2019-01-19T00:11:12.106Z,-0.40
2019-01-19T00:14:06.225Z,-0.40
2019-01-19T00:17:41.962Z,-0.40
2019-01-19T00:20:43.706Z,-0.40
2019-01-19T00:23:41.301Z,-0.60
2019-01-19T00:26:37.830Z,-0.50
2019-01-19T00:30:07.705Z,-0.50
2019-01-19T00:33:11.041Z,-0.60
2019-01-19T00:36:24.807Z,-0.60
2019-01-19T00:39:23.254Z,-0.60
2019-01-19T00:42:10.678Z,-0.60
2019-01-19T00:44:49.422Z,-0.50
2019-01-19T00:47:39.670Z,-0.60
2019-01-19T00:50:56.336Z,-0.60
2019-01-19T00:53:37.107Z,-0.50
2019-01-19T00:57:00.822Z,-0.40
2019-01-19T00:59:36.135Z,-0.60
2019-01-19T01:02:30.459Z,-0.60
2019-01-19T01:05:09.905Z,-0.60
2019-01-19T01:08:48.267Z,-0.50
2019-01-19T01:11:57.270Z,-0.50
2019-01-19T01:14:55.326Z,-0.60
2019-01-19T01:17:53.657Z,-0.70
2019-01-19T01:21:00.821Z,-0.60
2019-01-19T01:24:00.046Z,-0.60
2019-01-19T01:27:16.916Z,-0.50
2019-01-19T01:30:12.506Z,-0.50
2019-01-19T01:33:22.874Z,-0.50
2019-01-19T01:36:53.565Z,-0.50
2019-01-19T01:40:14.142Z,-0.40
2019-01-19T01:43:23.191Z,-0.60
2019-01-19T01:46:34.758Z,-0.60
2019-01-19T01:49:34.961Z,-0.60
2019-01-19T02:11:08.679Z,-0.50
2019-01-19T02:14:29.234Z,-0.50
2019-01-19T02:17:38.220Z,-0.60
2019-01-19T02:20:25.066Z,-0.50
2019-01-19T02:23:23.988Z,-0.60
2019-01-19T02:26:18.155Z,-0.50
2019-01-19T02:29:16.519Z,-0.50
2019-01-19T02:32:14.035Z,-0.60
2019-01-19T02:35:48.137Z,-0.60
2019-01-19T02:39:00.285Z,-0.60
2019-01-19T02:42:00.257Z,-0.50
2019-01-19T02:44:55.182Z,-0.50
2019-01-19T02:47:39.295Z,-0.60
2019-01-19T02:50:49.392Z,-0.60
2019-01-19T02:54:18.831Z,-0.60
2019-01-19T02:57:51.455Z,-0.60
2019-01-19T03:00:36.219Z,-0.60
2019-01-19T03:03:53.812Z,-0.70
2019-01-19T03:07:26.331Z,-0.70
2019-01-19T03:10:30.305Z,-0.70
2019-01-19T03:13:57.226Z,-0.70
2019-01-19T03:17:03.591Z,-0.70
2019-01-19T03:20:20.239Z,-0.80
2019-01-19T03:23:04.854Z,-0.70
2019-01-19T03:26:11.823Z,-0.70
2019-01-19T03:29:05.724Z,-0.70
2019-01-19T03:32:29.054Z,-0.80
2019-01-19T03:35:31.429Z,-0.70
2019-01-19T03:38:30.987Z,-0.70
2019-01-19T03:41:34.143Z,-0.70
2019-01-19T03:44:51.094Z,-0.70
2019-01-19T03:47:53.320Z,-0.70
2019-01-19T03:50:44.439Z,-0.80
2019-01-19T03:53:52.059Z,-0.80
2019-01-19T03:56:49.286Z,-0.80
2019-01-19T03:59:54.749Z,-0.80
2019-01-19T04:02:44.948Z,-0.70
2019-01-19T04:05:41.248Z,-0.70
2019-01-19T04:08:43.543Z,-0.80
2019-01-19T04:11:47.519Z,-0.80
2019-01-19T04:14:39.079Z,-0.80
2019-01-19T04:17:46.184Z,-0.90
2019-01-19T04:20:25.656Z,-1.00
2019-01-19T04:23:00.522Z,-1.00
2019-01-19T04:26:15.147Z,-1.00
2019-01-19T04:28:46.282Z,-1.10
2019-01-19T04:31:17.156Z,-1.00
2019-01-19T04:33:49.588Z,-1.10
2019-01-19T04:36:21.634Z,-1.10
2019-01-19T04:38:52.945Z,-1.20
2019-01-19T04:41:23.711Z,-1.30
2019-01-19T04:43:54.426Z,-1.30
2019-01-19T04:46:25.209Z,-1.30
2019-01-19T04:48:56.083Z,-1.30
2019-01-19T04:51:26.855Z,-1.40
2019-01-19T04:53:57.572Z,-1.40
2019-01-19T04:56:28.354Z,-1.40
2019-01-19T04:58:59.164Z,-1.40
2019-01-19T05:01:30.965Z,-1.40
2019-01-19T05:04:01.791Z,-1.40
2019-01-19T05:06:32.453Z,-1.40
2019-01-19T05:09:03.933Z,-1.40
2019-01-19T05:11:34.630Z,-1.40
2019-01-19T05:14:05.625Z,-1.50
2019-01-19T05:16:36.402Z,-1.50
2019-01-19T05:19:07.157Z,-1.60
2019-01-19T05:21:37.939Z,-1.60
2019-01-19T05:24:08.673Z,-1.60
2019-01-19T05:26:41.184Z,-1.60
2019-01-19T05:29:11.958Z,-1.60
2019-01-19T05:31:42.760Z,-1.60
2019-01-19T05:34:13.526Z,-1.60
2019-01-19T05:36:44.297Z,-1.60
2019-01-19T05:39:15.046Z,-1.60
2019-01-19T05:41:46.007Z,-1.70
2019-01-19T05:44:16.958Z,-1.70
2019-01-19T05:46:47.830Z,-1.70
2019-01-19T05:49:19.242Z,-1.70
2019-01-19T05:51:50.062Z,-1.70
2019-01-19T05:54:20.802Z,-1.70
2019-01-19T05:56:51.554Z,-1.70
2019-01-19T05:59:22.370Z,-1.70
2019-01-19T06:01:53.120Z,-1.70
2019-01-19T06:04:24.082Z,-1.60
2019-01-19T06:06:54.907Z,-1.60
2019-01-19T06:09:25.638Z,-1.60
2019-01-19T06:11:56.392Z,-1.60
2019-01-19T06:14:27.094Z,-1.70
2019-01-19T06:16:57.781Z,-1.70
2019-01-19T06:19:28.866Z,-1.70
2019-01-19T06:22:00.632Z,-1.70
2019-01-19T06:24:31.492Z,-1.70
2019-01-19T06:27:02.261Z,-1.70
2019-01-19T06:29:32.938Z,-1.70
2019-01-19T06:32:03.702Z,-1.80
2019-01-19T06:34:34.478Z,-1.80
2019-01-19T06:37:05.283Z,-1.80
2019-01-19T06:39:36.064Z,-1.80
2019-01-19T06:42:08.155Z,-1.70
2019-01-19T06:44:39.444Z,-1.70
2019-01-19T06:47:10.868Z,-1.70
2019-01-19T06:49:41.634Z,-1.70
2019-01-19T06:52:12.479Z,-1.70
2019-01-19T06:54:43.520Z,-1.70
2019-01-19T06:57:14.180Z,-1.60
2019-01-19T06:59:45.072Z,-1.60
2019-01-19T07:02:15.905Z,-1.60
2019-01-19T07:04:46.643Z,-1.60
2019-01-19T07:07:17.483Z,-1.60
2019-01-19T07:09:48.247Z,-1.60
2019-01-19T07:12:19.019Z,-1.70
2019-01-19T07:14:49.795Z,-1.60
2019-01-19T07:17:20.587Z,-1.60
2019-01-19T07:19:51.430Z,-1.60
2019-01-19T07:22:22.238Z,-1.60
2019-01-19T07:24:52.991Z,-1.70
2019-01-19T07:27:23.787Z,-1.70
2019-01-19T07:29:54.651Z,-1.70
2019-01-19T07:32:27.059Z,-1.70
2019-01-19T07:34:57.914Z,-1.60
2019-01-19T07:37:28.767Z,-1.60
2019-01-19T07:39:59.605Z,-1.60
2019-01-19T07:42:30.477Z,-1.50
2019-01-19T07:45:01.267Z,-1.60
2019-01-19T07:47:32.212Z,-1.60
2019-01-19T07:50:02.979Z,-1.70
2019-01-19T07:52:33.673Z,-1.60
2019-01-19T07:55:04.991Z,-1.60
2019-01-19T07:57:35.884Z,-1.60
2019-01-19T08:00:12.635Z,-1.60
2019-01-19T08:02:43.320Z,-1.60
2019-01-19T08:05:14.103Z,-1.70
2019-01-19T08:07:45.070Z,-1.60
2019-01-19T08:10:16.775Z,-1.50
2019-01-19T08:12:47.771Z,-1.50
2019-01-19T08:15:20.893Z,-1.50
2019-01-19T08:17:51.596Z,-1.50
2019-01-19T08:20:22.362Z,-1.50
2019-01-19T08:22:53.410Z,-1.50
2019-01-19T08:25:24.204Z,-1.50
2019-01-19T08:27:55.210Z,-1.40
2019-01-19T08:30:27.839Z,-1.40
2019-01-19T08:33:00.344Z,-1.40
2019-01-19T08:35:31.139Z,-1.30
2019-01-19T08:38:01.944Z,-1.20
2019-01-19T08:40:36.128Z,-1.20
2019-01-19T08:43:24.839Z,-1.20
2019-01-19T08:45:55.990Z,-1.10
2019-01-19T08:48:27.164Z,-1.00
2019-01-19T08:51:00.970Z,-0.90
2019-01-19T08:53:31.943Z,-0.80
2019-01-19T08:56:02.727Z,-0.70
2019-01-19T08:58:34.066Z,-0.70
2019-01-19T09:01:05.178Z,-0.70
2019-01-19T09:03:36.243Z,-0.70
2019-01-19T09:06:07.046Z,-0.60
2019-01-19T09:08:41.031Z,-0.60
2019-01-19T09:11:11.791Z,-0.60
2019-01-19T09:13:45.027Z,-0.50
2019-01-19T09:16:18.572Z,-0.40
2019-01-19T09:18:49.598Z,-0.30
2019-01-19T09:21:20.697Z,-0.30
2019-01-19T09:24:00.086Z,-0.20
2019-01-19T09:26:31.638Z,-0.20
2019-01-19T09:29:03.572Z,-0.20
2019-01-19T09:31:34.468Z,-0.20
2019-01-19T09:34:05.683Z,-0.10
2019-01-19T09:36:36.457Z,0.10
2019-01-19T09:39:10.983Z,0.10
2019-01-19T09:41:41.851Z,0.10
2019-01-19T09:44:12.023Z,0.10
2019-01-19T09:46:43.007Z,0.20
2019-01-19T09:49:13.780Z,0.30
2019-01-19T09:51:45.191Z,0.30
2019-01-19T09:54:16.019Z,0.30
2019-01-19T09:56:46.854Z,0.30
2019-01-19T09:59:17.758Z,0.30
2019-01-19T10:01:50.298Z,0.30
2019-01-19T10:04:21.150Z,0.30
2019-01-19T10:06:52.085Z,0.40
2019-01-19T10:09:22.968Z,0.50
2019-01-19T10:11:54.023Z,0.50
2019-01-19T10:14:25.303Z,0.60
2019-01-19T10:16:56.562Z,0.60
2019-01-19T10:19:28.411Z,0.70
2019-01-19T10:21:59.442Z,0.70
2019-01-19T10:24:30.288Z,0.80
2019-01-19T10:27:01.275Z,0.90
2019-01-19T10:29:32.176Z,0.90
2019-01-19T10:32:03.061Z,0.90
2019-01-19T10:34:33.719Z,0.90
2019-01-19T10:37:05.386Z,1.00
2019-01-19T10:39:36.459Z,1.00
2019-01-19T10:42:08.948Z,1.00
2019-01-19T10:44:39.973Z,1.00
2019-01-19T10:47:10.882Z,1.10
2019-01-19T10:49:41.715Z,1.00
2019-01-19T10:52:12.443Z,1.10
2019-01-19T10:54:44.755Z,1.10
2019-01-19T10:57:15.537Z,1.10
2019-01-19T10:59:46.354Z,1.20
2019-01-19T11:02:17.096Z,1.30
2019-01-19T11:04:47.926Z,1.30
2019-01-19T11:07:19.285Z,1.40
2019-01-19T11:09:50.183Z,1.40
2019-01-19T11:15:22.111Z,1.60
2019-01-19T11:17:52.838Z,1.80
2019-01-19T11:20:25.728Z,1.90
2019-01-19T11:22:57.073Z,2.10
2019-01-19T11:25:27.867Z,2.30
2019-01-19T11:27:58.598Z,2.80
2019-01-19T11:30:30.846Z,3.40
2019-01-19T11:33:01.623Z,3.20
2019-01-19T11:35:32.272Z,3.20
2019-01-19T11:38:02.893Z,3.10
2019-01-19T11:40:36.142Z,3.10
2019-01-19T11:43:08.399Z,3.10
2019-01-19T11:45:39.353Z,3.40
2019-01-19T11:48:10.072Z,3.80
2019-01-19T11:50:40.773Z,4.30
2019-01-19T11:53:12.497Z,4.60
2019-01-19T11:55:43.208Z,5.10
2019-01-19T11:58:14.011Z,5.70
2019-01-19T12:00:44.790Z,6.20
2019-01-19T12:03:15.530Z,6.40
2019-01-19T12:05:46.336Z,7.00
2019-01-19T12:08:19.818Z,7.20
2019-01-19T12:10:49.546Z,7.00
2019-01-19T12:13:20.166Z,7.20
2019-01-19T12:15:51.658Z,7.60
2019-01-19T12:18:22.372Z,7.70
2019-01-19T12:20:53.318Z,7.70
2019-01-19T12:23:24.087Z,7.90
2019-01-19T12:25:54.936Z,7.70
2019-01-19T12:28:25.695Z,7.50
2019-01-19T12:30:56.452Z,7.70
2019-01-19T12:33:27.202Z,7.70
2019-01-19T12:35:58.311Z,6.50
2019-01-19T12:38:29.047Z,5.60
2019-01-19T12:41:00.231Z,5.90
2019-01-19T12:43:31.496Z,7.30
2019-01-19T12:46:08.122Z,8.80
2019-01-19T12:48:38.888Z,9.40
2019-01-19T12:51:11.616Z,10.40
2019-01-19T12:53:42.397Z,10.80
2019-01-19T12:56:13.217Z,10.10
2019-01-19T12:58:43.940Z,10.50
2019-01-19T13:01:17.063Z,10.60
2019-01-19T13:03:47.982Z,10.70
2019-01-19T13:06:52.182Z,11.20
2019-01-19T13:09:26.229Z,10.90
2019-01-19T13:12:43.044Z,11.10
2019-01-19T13:15:52.071Z,11.70
2019-01-19T13:19:11.115Z,11.00
2019-01-19T13:22:30.233Z,10.50
2019-01-19T13:25:48.414Z,10.30
2019-01-19T13:29:01.697Z,10.30
2019-01-19T13:32:07.843Z,10.50
2019-01-19T13:35:17.297Z,10.50
2019-01-19T13:38:23.429Z,11.10
2019-01-19T13:41:31.074Z,11.40
2019-01-19T13:44:38.647Z,11.20
2019-01-19T13:47:59.926Z,11.30
2019-01-19T13:50:38.794Z,11.10
2019-01-19T13:53:51.317Z,10.50
2019-01-19T13:56:57.055Z,10.00
2019-01-19T13:59:40.105Z,10.00
2019-01-19T14:02:59.608Z,10.20
2019-01-19T14:05:43.109Z,10.60
2019-01-19T14:08:53.716Z,10.60
2019-01-19T14:12:04.057Z,10.40
2019-01-19T14:15:16.238Z,10.10
2019-01-19T14:18:18.474Z,9.60
2019-01-19T14:21:41.787Z,9.30
2019-01-19T14:24:36.810Z,9.10
2019-01-19T14:27:57.700Z,8.80
2019-01-19T14:30:55.335Z,8.30
2019-01-19T14:34:10.479Z,7.50
2019-01-19T14:37:32.952Z,7.30
2019-01-19T14:40:27.606Z,7.20
2019-01-19T14:43:30.950Z,7.10
2019-01-19T14:46:57.704Z,7.20
2019-01-19T14:50:05.525Z,6.70
2019-01-19T14:52:47.470Z,6.00
2019-01-19T14:55:46.387Z,5.80
2019-01-19T14:59:07.294Z,5.60
2019-01-19T15:01:58.591Z,5.20
2019-01-19T15:04:53.867Z,4.60
2019-01-19T15:08:03.308Z,4.30
2019-01-19T15:11:16.762Z,4.10
2019-01-19T15:14:26.080Z,3.90
2019-01-19T15:17:14.424Z,3.70
2019-01-19T15:20:20.579Z,3.60
2019-01-19T15:23:47.573Z,3.50
2019-01-19T15:26:58.251Z,3.30
2019-01-19T15:30:16.176Z,3.30
2019-01-19T15:33:31.234Z,3.10
2019-01-19T15:36:52.815Z,3.00
2019-01-19T15:39:49.710Z,2.90
2019-01-19T15:42:49.929Z,2.80
2019-01-19T15:45:48.094Z,2.70
2019-01-19T15:48:45.691Z,2.60
2019-01-19T15:52:14.403Z,2.50
2019-01-19T15:55:20.100Z,2.40
2019-01-19T15:58:36.007Z,2.30
2019-01-19T16:01:39.719Z,2.20
2019-01-19T16:04:59.267Z,2.00
2019-01-19T16:07:59.295Z,1.90
2019-01-19T16:11:14.442Z,1.70
2019-01-19T16:14:27.322Z,1.70
2019-01-19T16:17:37.340Z,1.60
2019-01-19T16:20:56.888Z,1.60
2019-01-19T16:24:12.746Z,1.50
2019-01-19T16:27:27.868Z,1.40
2019-01-19T16:30:43.275Z,1.30
2019-01-19T16:33:53.632Z,1.30
2019-01-19T16:37:05.163Z,1.20
2019-01-19T16:40:17.910Z,1.20
2019-01-19T16:43:16.998Z,1.10
2019-01-19T16:46:26.907Z,1.10
2019-01-19T16:49:06.384Z,1.00
2019-01-19T16:52:22.107Z,1.00
2019-01-19T16:55:19.330Z,0.90
2019-01-19T16:58:37.136Z,0.80
2019-01-19T17:01:49.542Z,0.80
2019-01-19T17:04:43.370Z,0.70
2019-01-19T17:08:08.402Z,0.60
2019-01-19T17:11:29.940Z,0.60
2019-01-19T17:14:23.452Z,0.50
2019-01-19T17:17:02.606Z,0.50
2019-01-19T17:20:01.303Z,0.50
2019-01-19T17:22:51.868Z,0.40
2019-01-19T17:25:49.690Z,0.50
2019-01-19T17:28:55.196Z,0.50
2019-01-19T17:32:09.906Z,0.40
2019-01-19T17:35:01.522Z,0.30
2019-01-19T17:38:13.023Z,0.40
2019-01-19T17:41:11.294Z,0.30
2019-01-19T17:44:31.889Z,0.30
2019-01-19T17:47:29.398Z,0.30
2019-01-19T17:50:44.867Z,0.30
2019-01-19T17:53:41.796Z,0.20
2019-01-19T17:56:58.428Z,0.20
2019-01-19T17:59:50.929Z,0.10
2019-01-19T18:03:09.036Z,0.20
2019-01-19T18:06:14.391Z,0.20
2019-01-19T18:09:33.288Z,0.30
2019-01-19T18:12:27.302Z,0.30
2019-01-19T18:15:27.752Z,0.20
2019-01-19T18:18:19.284Z,0.20
2019-01-19T18:21:16.874Z,0.20
2019-01-19T18:24:17.593Z,0.20
2019-01-19T18:27:18.673Z,0.20
2019-01-19T18:30:23.729Z,0.20
2019-01-19T18:33:24.493Z,0.10
2019-01-19T18:36:24.953Z,0.10
2019-01-19T18:39:27.613Z,0.00
2019-01-19T18:42:22.868Z,0.00
2019-01-19T18:45:38.015Z,-0.10
2019-01-19T18:48:26.711Z,-0.20
2019-01-19T18:51:29.335Z,-0.20
2019-01-19T18:54:14.524Z,-0.10
2019-01-19T18:57:31.094Z,-0.10
2019-01-19T19:00:58.736Z,-0.20
2019-01-19T19:04:05.663Z,-0.20
2019-01-19T19:06:50.561Z,-0.20
2019-01-19T19:09:43.894Z,-0.10
2019-01-19T19:12:23.487Z,-0.10
2019-01-19T19:15:39.699Z,-0.10
2019-01-19T19:18:42.482Z,-0.20
2019-01-19T19:22:03.675Z,-0.40
2019-01-19T19:25:23.270Z,-0.50
2019-01-19T19:28:18.629Z,-0.60
2019-01-19T19:31:15.379Z,-0.60
2019-01-19T19:33:58.029Z,-0.60
2019-01-19T19:36:49.762Z,-0.50
2019-01-19T19:40:10.350Z,-0.60
2019-01-19T19:43:12.625Z,-0.60
2019-01-19T19:46:07.878Z,-0.70
2019-01-19T19:49:21.579Z,-0.70
2019-01-19T19:52:02.698Z,-0.70
2019-01-19T19:54:35.691Z,-0.70
2019-01-19T19:57:06.711Z,-0.70
2019-01-19T19:59:37.717Z,-0.70
2019-01-19T20:02:10.305Z,-0.70
2019-01-19T20:04:41.198Z,-0.70
2019-01-19T20:07:12.431Z,-0.70
2019-01-19T20:09:43.586Z,-0.70
2019-01-19T20:12:14.770Z,-0.70
2019-01-19T20:14:46.029Z,-0.70
2019-01-19T20:17:17.171Z,-0.70
2019-01-19T20:19:48.465Z,-0.80
2019-01-19T20:22:19.431Z,-0.80
2019-01-19T20:24:50.872Z,-0.80
2019-01-19T20:27:22.601Z,-0.80
2019-01-19T20:29:55.231Z,-0.80
2019-01-19T20:32:26.154Z,-0.90
2019-01-19T20:34:57.046Z,-0.90
2019-01-19T20:37:29.632Z,-0.90
2019-01-19T20:40:00.539Z,-0.90
2019-01-19T20:42:32.653Z,-0.90
2019-01-19T20:45:05.462Z,-0.90
2019-01-19T20:47:36.502Z,-0.90
2019-01-19T20:50:08.200Z,-0.90
2019-01-19T20:52:39.632Z,-0.90
2019-01-19T20:55:10.547Z,-0.90
2019-01-19T20:57:41.419Z,-1.00
2019-01-19T21:00:16.361Z,-1.00
2019-01-19T21:02:48.903Z,-1.00
2019-01-19T21:05:19.994Z,-1.00
2019-01-19T21:07:50.882Z,-1.10
2019-01-19T21:10:23.187Z,-1.00
2019-01-19T21:12:54.247Z,-1.00
2019-01-19T21:15:25.176Z,-1.00
2019-01-19T21:17:56.077Z,-0.90
2019-01-19T21:20:26.884Z,-0.80
2019-01-19T21:22:59.784Z,-0.90
2019-01-19T21:25:30.489Z,-0.80
2019-01-19T21:28:01.385Z,-0.90
2019-01-19T21:30:32.290Z,-0.90
2019-01-19T21:33:03.479Z,-0.90
2019-01-19T21:35:37.206Z,-1.00
2019-01-19T21:38:08.194Z,-1.00
2019-01-19T21:40:39.362Z,-1.00
2019-01-19T21:43:10.513Z,-1.10
2019-01-19T21:45:41.320Z,-1.10
2019-01-19T21:48:12.272Z,-1.10
2019-01-19T21:50:43.125Z,-1.20
2019-01-19T21:53:14.448Z,-1.20
2019-01-19T21:55:48.893Z,-1.20
2019-01-19T21:58:21.798Z,-1.20
2019-01-19T22:00:52.573Z,-1.30
2019-01-19T22:03:23.499Z,-1.30
2019-01-19T22:05:54.459Z,-1.30
2019-01-19T22:08:26.313Z,-1.30
2019-01-19T22:10:57.379Z,-1.30
2019-01-19T22:13:28.487Z,-1.30
2019-01-19T22:15:59.949Z,-1.30
2019-01-19T22:18:30.809Z,-1.30
2019-01-19T22:21:01.702Z,-1.40
2019-01-19T22:23:32.667Z,-1.40
2019-01-19T22:26:03.553Z,-1.50
2019-01-19T22:28:34.356Z,-1.50
2019-01-19T22:31:05.156Z,-1.50
2019-01-19T22:33:35.933Z,-1.50
2019-01-19T22:36:07.492Z,-1.60
2019-01-19T22:38:38.392Z,-1.60
2019-01-19T22:41:09.294Z,-1.60
2019-01-19T22:43:40.091Z,-1.60
2019-01-19T22:46:10.877Z,-1.50
2019-01-19T22:48:41.679Z,-1.50
2019-01-19T22:51:12.620Z,-1.50
2019-01-19T22:53:43.286Z,-1.60
2019-01-19T22:56:14.105Z,-1.60
2019-01-19T22:58:46.062Z,-1.60
2019-01-19T23:01:42.182Z,-1.60
2019-01-19T23:04:13.214Z,-1.70
2019-01-19T23:06:44.114Z,-1.70
2019-01-19T23:09:14.941Z,-1.70
2019-01-19T23:11:45.778Z,-1.70
2019-01-19T23:14:17.110Z,-1.70
2019-01-19T23:16:47.974Z,-1.80
2019-01-19T23:19:18.862Z,-1.80
2019-01-19T23:21:49.650Z,-1.80
2019-01-19T23:24:20.477Z,-1.70
2019-01-19T23:26:52.146Z,-1.70
2019-01-19T23:29:22.943Z,-1.80
2019-01-19T23:31:54.026Z,-1.90
2019-01-19T23:34:24.821Z,-1.90
2019-01-19T23:36:55.601Z,-1.80
2019-01-19T23:39:26.406Z,-1.80
2019-01-19T23:41:57.214Z,-1.80
2019-01-19T23:44:27.974Z,-1.80
2019-01-19T23:46:58.789Z,-1.80
2019-01-19T23:49:29.566Z,-1.90
2019-01-19T23:52:00.394Z,-1.90
2019-01-19T23:54:31.261Z,-1.90
2019-01-19T23:57:02.057Z,-2.00
2019-01-19T23:59:32.866Z,-2.10
